METAR AND TAF INFORMATION
METAR FOR PACD
ADDS - METARS form results

(2056 UTC 19 January 2018)
Data provider http://aviationweather.gov/adds/metars/
 
METAR text: PACD 192053Z 31006KT 3SM -SN BR SCT018 SCT027 BKN037 M02/M03 A2976 RMK AO2 UPB20E23SNB23 SLP077 P0001 60001 T10221028 51017
Conditions at: PACD (COLD BAY , AK, US) observed 2053 UTC 19 January 2018
Temperature: -2.2°C (28°F)
Dewpoint: -2.8°C (27°F) [RH = 96%]
Pressure (altimeter): 29.76 inches Hg (1007.9 mb)
[Sea-level pressure: 1007.7 mb]
Winds: from the NW (310 degrees) at 7 MPH (6 knots; 3.1 m/s)
Visibility: 3 miles (5 km)
Ceiling: 3700 feet AGL
Clouds: scattered clouds at 1800 feet AGL
scattered clouds at 2700 feet AGL
broken clouds at 3700 feet AGL
Weather: -SN BR  (light snow, mist)

METAR text: PACD 192044Z 34005KT 3SM -SN BR FEW013 BKN020 OVC042 M02/M02 A2975 RMK AO2 UPB20E23SNB23 P0001 T10221022
Conditions at: PACD (COLD BAY , AK, US) observed 2044 UTC 19 January 2018
Temperature: -2.2°C (28°F)
Dewpoint: -2.2°C (28°F) [RH = 100%]
Pressure (altimeter): 29.75 inches Hg (1007.5 mb)
Winds: from the NNW (340 degrees) at 6 MPH (5 knots; 2.6 m/s)
Visibility: 3 miles (5 km)
Ceiling: 2000 feet AGL
Clouds: few clouds at 1300 feet AGL
broken clouds at 2000 feet AGL
overcast cloud deck at 4200 feet AGL
Weather: -SN BR  (light snow, mist)

METAR text: PACD 192028Z 30006KT 1 3/4SM -SN BR BKN018 BKN027 OVC032 M02/M03 A2975 RMK AO2 UPB20E23SNB23 P0000 T10221028
Conditions at: PACD (COLD BAY , AK, US) observed 2028 UTC 19 January 2018
Temperature: -2.2°C (28°F)
Dewpoint: -2.8°C (27°F) [RH = 96%]
Pressure (altimeter): 29.75 inches Hg (1007.5 mb)
Winds: from the WNW (300 degrees) at 7 MPH (6 knots; 3.1 m/s)
Visibility: 1.75 miles (2.82 km)
Ceiling: 1800 feet AGL
Clouds: broken clouds at 1800 feet AGL
broken clouds at 2700 feet AGL
overcast cloud deck at 3200 feet AGL
Weather: -SN BR  (light snow, mist)

METAR text: PACD 192014Z 30006KT 10SM SCT015 BKN020 OVC031 M03/M04 A2974 RMK AO2 T10331039
Conditions at: PACD (COLD BAY , AK, US) observed 2014 UTC 19 January 2018
Temperature: -3.3°C (26°F)
Dewpoint: -3.9°C (25°F) [RH = 96%]
Pressure (altimeter): 29.74 inches Hg (1007.2 mb)
Winds: from the WNW (300 degrees) at 7 MPH (6 knots; 3.1 m/s)
Visibility: 10 or more miles (16+ km)
Ceiling: 2000 feet AGL
Clouds: scattered clouds at 1500 feet AGL
broken clouds at 2000 feet AGL
overcast cloud deck at 3100 feet AGL
Weather: no significant weather observed at this time

METAR text: PACD 192005Z 30006KT 10SM SCT019 SCT024 BKN032 M03/M04 A2974 RMK AO2 T10331039
Conditions at: PACD (COLD BAY , AK, US) observed 2005 UTC 19 January 2018
Temperature: -3.3°C (26°F)
Dewpoint: -3.9°C (25°F) [RH = 96%]
Pressure (altimeter): 29.74 inches Hg (1007.2 mb)
Winds: from the WNW (300 degrees) at 7 MPH (6 knots; 3.1 m/s)
Visibility: 10 or more miles (16+ km)
Ceiling: 3200 feet AGL
Clouds: scattered clouds at 1900 feet AGL
scattered clouds at 2400 feet AGL
broken clouds at 3200 feet AGL
Weather: no significant weather observed at this time

Forecast for: PACD (COLD BAY , AK, US)
Text: PACD 191722Z 1918/2018 31011KT 5SM -SN BR SCT006 BKN025
Forecast period: 1800 to 2200 UTC 19 January 2018
Forecast type: FROM: standard forecast or significant change
Winds: from the NW (310 degrees) at 13 MPH (11 knots; 5.7 m/s)
Visibility: 5 miles (8 km)
Ceiling: 2500 feet AGL
Clouds: scattered clouds at 600 feet AGL
broken clouds at 2500 feet AGL
Weather: -SN BR  (light snow, mist)
Text: TEMPO 1918/1922 6SM -SN SCT025
Forecast period: 1800 to 2200 UTC 19 January 2018
Forecast type: TEMPORARY: The following changes expected for less than half the time period
Visibility: 6 miles (10 km)
Clouds: scattered clouds at 2500 feet AGL
Weather: -SN  (light snow)
Text: FM192200 33011KT P6SM BKN035
Forecast period: 2200 UTC 19 January 2018 to 0300 UTC 20 January 2018
Forecast type: FROM: standard forecast or significant change
Winds: from the NNW (330 degrees) at 13 MPH (11 knots; 5.7 m/s)
Visibility: 6 or more miles (10+ km)
Ceiling: 3500 feet AGL
Clouds: broken clouds at 3500 feet AGL
Weather: no significant weather forecast for this period
Text: FM200300 34011G24KT P6SM SCT120
Forecast period: 0300 to 1200 UTC 20 January 2018
Forecast type: FROM: standard forecast or significant change
Winds: from the NNW (340 degrees) at 13 MPH (11 knots; 5.7 m/s)
gusting to 28 MPH (24 knots; 12.5 m/s)
Visibility: 6 or more miles (10+ km)
Clouds: scattered clouds at 12000 feet AGL
Weather: no significant weather forecast for this period
Text: FM201200 35020G32KT P6SM SCT100
Forecast period: 1200 to 1800 UTC 20 January 2018
Forecast type: FROM: standard forecast or significant change
Winds: from the N (350 degrees) at 23 MPH (20 knots; 10.4 m/s)
gusting to 37 MPH (32 knots; 16.6 m/s)
Visibility: 6 or more miles (10+ km)
Clouds: scattered clouds at 10000 feet AGL
Weather: no significant weather forecast for this period

 AIRPORT MAP

 RUNWAY INFORMATION
Runway 08 Runway length 4235 ft Runway width 150 ft
Runway elevation 93 ft Runway displaced threshold 0 ft Runway heading 95
Runway 26 Runway length 4235 ft Runway width 150 ft
Runway elevation 96 ft Runway displaced threshold 0 ft Runway heading 275
Runway 14 Runway length 10415 ft Runway width 150 ft
Runway elevation 69 ft Runway displaced threshold 0 ft Runway heading 158
Runway 32 Runway length 10415 ft Runway width 150 ft
Runway elevation 89 ft Runway displaced threshold 0 ft Runway heading 338

 AIRPORT FREQUENCIES
Type ASOS Name ASOS Frequency 135.75 MHZ
Type CNTR Name ANCHORAGE Frequency 118.5 MHZ
Type CTAF Name CTAF Frequency 123.6 MHZ
Type FSS Name RDO Frequency 123.6 MHZ
Type RFSS Name KENAI RDO Frequency 123.6 MHZ

 AIRPORT NEAR NAVIGATION AIDS
Type NDB Name Elfee Frequency 341 KHZ
Type VORTAC Name Cold Bay Frequency 112600 KHZ



Powered by Virtual Airlines Manager [v2.6.2]